Jefferson Hills, Pennsylvania
Current Conditions -  °F | °C
As of 5:32 AM on Thursday 23 Oct 2014 (Local Time) from KAGC Reporting Station
Broken Clouds Broken Clouds  
Wind Chill: 40°   Ceiling: 1500
Heat Index: 44°   Visibility: 9mi
Dew Point: 39°   Wind: 8mph
Humidity: 82%   Direction: 330°NNW
Pressure: 30.11"   Gusts: NA
Location:  40.2958°N, 79.9241°W
Report Text: KAGC 230932Z AUTO 33007KT 9SM BKN015 BKN021 07/04 A3011 RMK AO2 T00670039 TSNO
Loading
Personal Weather Stations






























Interactive Weather Map
Tropical Storm Tracking
New forecast layout! Learn more

10-Day Weather Forecast

Advertisements
Track Severe Weather on mobile